sensor_id;sensor_type;location;lat;lon;timestamp;pressure;altitude;pressure_sealevel;temperature;humidity
70745;BME280;59284;31.390;34.904;2023-01-01T00:01:21;95539.19;;;14.27;100.00
70745;BME280;59284;31.390;34.904;2023-01-01T00:03:51;95549.09;;;15.10;100.00
70745;BME280;59284;31.390;34.904;2023-01-01T00:06:17;95540.63;;;14.46;100.00
70745;BME280;59284;31.390;34.904;2023-01-01T00:08:43;95533.91;;;14.32;100.00
70745;BME280;59284;31.390;34.904;2023-01-01T00:11:10;95525.94;;;14.50;100.00
70745;BME280;59284;31.390;34.904;2023-01-01T00:13:38;95538.47;;;14.48;100.00
70745;BME280;59284;31.390;34.904;2023-01-01T00:16:06;95525.88;;;14.86;100.00
70745;BME280;59284;31.390;34.904;2023-01-01T00:18:32;95520.28;;;14.57;100.00
70745;BME280;59284;31.390;34.904;2023-01-01T00:21:06;95517.97;;;14.55;100.00
70745;BME280;59284;31.390;34.904;2023-01-01T00:23:33;95531.09;;;14.64;100.00
70745;BME280;59284;31.390;34.904;2023-01-01T00:25:59;95521.50;;;14.37;100.00
70745;BME280;59284;31.390;34.904;2023-01-01T00:28:25;95519.50;;;14.56;100.00
70745;BME280;59284;31.390;34.904;2023-01-01T00:30:51;95509.31;;;14.68;100.00
70745;BME280;59284;31.390;34.904;2023-01-01T00:33:17;95514.63;;;14.41;100.00
70745;BME280;59284;31.390;34.904;2023-01-01T00:35:43;95522.13;;;14.56;100.00
70745;BME280;59284;31.390;34.904;2023-01-01T00:38:08;95530.84;;;14.52;100.00
70745;BME280;59284;31.390;34.904;2023-01-01T00:40:34;95514.50;;;14.46;100.00
70745;BME280;59284;31.390;34.904;2023-01-01T00:43:01;95515.91;;;14.66;100.00
70745;BME280;59284;31.390;34.904;2023-01-01T00:45:27;95509.75;;;14.48;100.00
70745;BME280;59284;31.390;34.904;2023-01-01T00:47:53;95517.38;;;14.58;100.00
70745;BME280;59284;31.390;34.904;2023-01-01T00:50:20;95503.78;;;14.70;100.00
70745;BME280;59284;31.390;34.904;2023-01-01T00:52:46;95519.34;;;14.39;100.00
70745;BME280;59284;31.390;34.904;2023-01-01T00:55:13;95524.53;;;14.66;100.00
70745;BME280;59284;31.390;34.904;2023-01-01T00:57:39;95507.16;;;14.48;100.00
70745;BME280;59284;31.390;34.904;2023-01-01T01:00:06;95508.34;;;14.64;100.00
70745;BME280;59284;31.390;34.904;2023-01-01T01:02:32;95513.81;;;14.54;100.00
70745;BME280;59284;31.390;34.904;2023-01-01T01:04:58;95512.41;;;14.70;100.00
70745;BME280;59284;31.390;34.904;2023-01-01T01:07:24;95510.28;;;14.37;100.00
70745;BME280;59284;31.390;34.904;2023-01-01T01:09:49;95511.84;;;14.60;100.00
70745;BME280;59284;31.390;34.904;2023-01-01T01:12:15;95519.06;;;14.76;100.00
70745;BME280;59284;31.390;34.904;2023-01-01T01:14:41;95515.44;;;14.86;100.00
70745;BME280;59284;31.390;34.904;2023-01-01T01:17:06;95527.59;;;15.13;100.00
70745;BME280;59284;31.390;34.904;2023-01-01T01:19:32;95512.16;;;14.58;100.00
70745;BME280;59284;31.390;34.904;2023-01-01T01:21:58;95511.63;;;14.48;100.00
70745;BME280;59284;31.390;34.904;2023-01-01T01:24:23;95511.03;;;14.73;100.00
70745;BME280;59284;31.390;34.904;2023-01-01T01:26:49;95502.69;;;14.85;100.00
70745;BME280;59284;31.390;34.904;2023-01-01T01:29:15;95508.66;;;14.63;100.00
70745;BME280;59284;31.390;34.904;2023-01-01T01:31:40;95512.50;;;14.43;100.00
70745;BME280;59284;31.390;34.904;2023-01-01T01:34:06;95510.28;;;14.37;100.00
70745;BME280;59284;31.390;34.904;2023-01-01T01:36:32;95504.00;;;14.38;100.00
70745;BME280;59284;31.390;34.904;2023-01-01T01:38:57;95512.63;;;14.60;100.00
70745;BME280;59284;31.390;34.904;2023-01-01T01:41:25;95500.56;;;14.51;100.00
70745;BME280;59284;31.390;34.904;2023-01-01T01:44:02;95497.44;;;14.62;100.00
70745;BME280;59284;31.390;34.904;2023-01-01T01:46:40;95496.06;;;14.65;100.00
70745;BME280;59284;31.390;34.904;2023-01-01T01:49:36;95499.09;;;14.81;100.00
70745;BME280;59284;31.390;34.904;2023-01-01T01:52:02;95507.34;;;14.52;100.00
70745;BME280;59284;31.390;34.904;2023-01-01T01:54:28;95497.63;;;14.66;100.00
70745;BME280;59284;31.390;34.904;2023-01-01T01:56:58;95500.66;;;14.59;100.00
70745;BME280;59284;31.390;34.904;2023-01-01T01:59:30;95507.38;;;14.96;100.00
70745;BME280;59284;31.390;34.904;2023-01-01T02:01:58;95499.00;;;14.63;100.00
70745;BME280;59284;31.390;34.904;2023-01-01T02:04:24;95505.88;;;14.82;100.00
70745;BME280;59284;31.390;34.904;2023-01-01T02:06:51;95496.66;;;14.26;100.00
70745;BME280;59284;31.390;34.904;2023-01-01T02:09:18;95499.56;;;14.60;100.00
70745;BME280;59284;31.390;34.904;2023-01-01T02:11:45;95497.97;;;14.51;100.00
70745;BME280;59284;31.390;34.904;2023-01-01T02:14:11;95485.81;;;14.68;100.00
70745;BME280;59284;31.390;34.904;2023-01-01T02:16:47;95494.25;;;14.65;100.00
70745;BME280;59284;31.390;34.904;2023-01-01T02:29:59;95487.41;;;15.00;100.00
70745;BME280;59284;31.390;34.904;2023-01-01T02:32:35;95491.69;;;14.96;100.00
70745;BME280;59284;31.390;34.904;2023-01-01T02:35:11;95490.28;;;14.68;100.00
70745;BME280;59284;31.390;34.904;2023-01-01T02:38:04;95489.72;;;14.57;100.00
70745;BME280;59284;31.390;34.904;2023-01-01T02:40:33;95495.28;;;15.09;100.00
70745;BME280;59284;31.390;34.904;2023-01-01T02:43:01;95501.59;;;14.63;100.00
70745;BME280;59284;31.390;34.904;2023-01-01T02:45:29;95504.38;;;14.67;100.00
70745;BME280;59284;31.390;34.904;2023-01-01T02:47:54;95500.94;;;14.58;100.00
70745;BME280;59284;31.390;34.904;2023-01-01T02:50:23;95498.50;;;14.84;100.00
70745;BME280;59284;31.390;34.904;2023-01-01T03:01:41;95512.88;;;15.17;100.00
70745;BME280;59284;31.390;34.904;2023-01-01T03:07:10;95512.44;;;15.01;100.00
70745;BME280;59284;31.390;34.904;2023-01-01T03:09:49;95509.28;;;15.13;100.00
70745;BME280;59284;31.390;34.904;2023-01-01T03:12:27;95523.09;;;14.83;100.00
70745;BME280;59284;31.390;34.904;2023-01-01T03:15:20;95513.25;;;14.80;100.00
70745;BME280;59284;31.390;34.904;2023-01-01T03:17:56;95511.88;;;15.04;100.00
70745;BME280;59284;31.390;34.904;2023-01-01T03:20:28;95524.75;;;14.78;100.00
70745;BME280;59284;31.390;34.904;2023-01-01T03:23:01;95513.19;;;14.71;100.00
70745;BME280;59284;31.390;34.904;2023-01-01T03:25:31;95520.50;;;14.83;100.00
70745;BME280;59284;31.390;34.904;2023-01-01T03:28:01;95524.69;;;14.92;100.00
70745;BME280;59284;31.390;34.904;2023-01-01T03:30:32;95514.94;;;14.62;100.00
70745;BME280;59284;31.390;34.904;2023-01-01T03:33:13;95506.94;;;15.03;100.00
70745;BME280;59284;31.390;34.904;2023-01-01T03:35:58;95531.81;;;15.84;100.00
70745;BME280;59284;31.390;34.904;2023-01-01T03:38:37;95534.00;;;15.51;100.00
70745;BME280;59284;31.390;34.904;2023-01-01T03:41:10;95522.69;;;15.42;100.00
70745;BME280;59284;31.390;34.904;2023-01-01T03:43:49;95530.28;;;15.52;100.00
70745;BME280;59284;31.390;34.904;2023-01-01T03:46:21;95525.44;;;15.37;100.00
70745;BME280;59284;31.390;34.904;2023-01-01T03:48:48;95528.63;;;15.34;100.00
70745;BME280;59284;31.390;34.904;2023-01-01T03:51:41;95531.91;;;15.39;100.00
70745;BME280;59284;31.390;34.904;2023-01-01T03:57:08;95524.91;;;14.60;100.00
70745;BME280;59284;31.390;34.904;2023-01-01T04:02:27;95540.72;;;14.55;100.00
70745;BME280;59284;31.390;34.904;2023-01-01T04:04:56;95530.41;;;14.23;100.00
70745;BME280;59284;31.390;34.904;2023-01-01T04:07:24;95529.72;;;14.17;100.00
70745;BME280;59284;31.390;34.904;2023-01-01T04:09:51;95531.31;;;14.54;100.00
70745;BME280;59284;31.390;34.904;2023-01-01T04:12:20;95525.34;;;14.26;100.00
70745;BME280;59284;31.390;34.904;2023-01-01T04:14:46;95537.44;;;14.22;100.00
70745;BME280;59284;31.390;34.904;2023-01-01T04:17:13;95538.09;;;14.41;100.00
70745;BME280;59284;31.390;34.904;2023-01-01T04:19:39;95540.84;;;14.23;100.00
70745;BME280;59284;31.390;34.904;2023-01-01T04:22:04;95532.22;;;14.22;100.00
70745;BME280;59284;31.390;34.904;2023-01-01T04:24:30;95537.59;;;14.89;100.00
70745;BME280;59284;31.390;34.904;2023-01-01T04:26:56;95544.03;;;14.20;100.00
70745;BME280;59284;31.390;34.904;2023-01-01T04:29:22;95547.00;;;14.27;100.00
70745;BME280;59284;31.390;34.904;2023-01-01T04:31:49;95544.69;;;14.12;100.00
70745;BME280;59284;31.390;34.904;2023-01-01T04:34:15;95544.31;;;14.18;100.00
70745;BME280;59284;31.390;34.904;2023-01-01T04:36:41;95546.34;;;14.35;100.00
70745;BME280;59284;31.390;34.904;2023-01-01T04:39:07;95537.44;;;14.22;100.00
70745;BME280;59284;31.390;34.904;2023-01-01T04:41:33;95555.91;;;14.26;100.00
70745;BME280;59284;31.390;34.904;2023-01-01T04:43:59;95559.63;;;14.96;100.00
70745;BME280;59284;31.390;34.904;2023-01-01T04:46:25;95568.44;;;15.09;100.00
70745;BME280;59284;31.390;34.904;2023-01-01T04:48:50;95565.94;;;14.82;100.00
70745;BME280;59284;31.390;34.904;2023-01-01T04:51:18;95561.97;;;14.48;100.00
70745;BME280;59284;31.390;34.904;2023-01-01T04:53:44;95562.25;;;14.60;100.00
70745;BME280;59284;31.390;34.904;2023-01-01T04:56:12;95573.25;;;15.37;100.00
70745;BME280;59284;31.390;34.904;2023-01-01T04:58:39;95575.03;;;15.06;100.00
70745;BME280;59284;31.390;34.904;2023-01-01T05:01:06;95573.69;;;15.09;100.00
70745;BME280;59284;31.390;34.904;2023-01-01T05:03:32;95557.00;;;14.60;100.00
70745;BME280;59284;31.390;34.904;2023-01-01T05:06:00;95569.34;;;15.04;100.00
70745;BME280;59284;31.390;34.904;2023-01-01T05:08:30;95583.22;;;15.49;100.00
70745;BME280;59284;31.390;34.904;2023-01-01T05:11:05;95583.47;;;15.48;100.00
70745;BME280;59284;31.390;34.904;2023-01-01T05:13:33;95581.25;;;15.41;100.00
70745;BME280;59284;31.390;34.904;2023-01-01T05:16:04;95570.94;;;15.36;100.00
70745;BME280;59284;31.390;34.904;2023-01-01T05:18:30;95585.31;;;15.25;100.00
70745;BME280;59284;31.390;34.904;2023-01-01T05:21:03;95586.56;;;15.72;100.00
70745;BME280;59284;31.390;34.904;2023-01-01T05:23:29;95593.75;;;15.66;100.00
70745;BME280;59284;31.390;34.904;2023-01-01T05:25:56;95596.19;;;15.18;100.00
70745;BME280;59284;31.390;34.904;2023-01-01T05:28:22;95587.03;;;15.29;100.00
70745;BME280;59284;31.390;34.904;2023-01-01T05:30:51;95593.88;;;15.39;100.00
70745;BME280;59284;31.390;34.904;2023-01-01T05:33:18;95586.47;;;14.74;100.00
70745;BME280;59284;31.390;34.904;2023-01-01T05:35:44;95576.38;;;14.59;100.00
70745;BME280;59284;31.390;34.904;2023-01-01T05:38:10;95560.72;;;14.59;100.00
70745;BME280;59284;31.390;34.904;2023-01-01T05:40:39;95558.13;;;14.82;100.00
70745;BME280;59284;31.390;34.904;2023-01-01T05:43:06;95565.44;;;14.93;100.00
70745;BME280;59284;31.390;34.904;2023-01-01T05:45:33;95567.53;;;14.69;100.00
70745;BME280;59284;31.390;34.904;2023-01-01T05:47:59;95571.53;;;14.66;100.00
70745;BME280;59284;31.390;34.904;2023-01-01T05:50:25;95562.03;;;14.70;100.00
70745;BME280;59284;31.390;34.904;2023-01-01T05:52:50;95572.59;;;14.88;100.00
70745;BME280;59284;31.390;34.904;2023-01-01T05:55:16;95576.88;;;14.84;100.00
70745;BME280;59284;31.390;34.904;2023-01-01T05:57:41;95580.41;;;14.65;100.00
70745;BME280;59284;31.390;34.904;2023-01-01T06:00:08;95600.88;;;15.52;100.00
70745;BME280;59284;31.390;34.904;2023-01-01T06:02:33;95602.03;;;15.37;100.00
70745;BME280;59284;31.390;34.904;2023-01-01T06:04:59;95596.88;;;15.24;100.00
70745;BME280;59284;31.390;34.904;2023-01-01T06:07:25;95606.00;;;15.35;100.00
70745;BME280;59284;31.390;34.904;2023-01-01T06:09:51;95597.44;;;15.21;100.00
70745;BME280;59284;31.390;34.904;2023-01-01T06:12:16;95597.53;;;15.38;100.00
70745;BME280;59284;31.390;34.904;2023-01-01T06:14:43;95597.44;;;15.43;100.00
70745;BME280;59284;31.390;34.904;2023-01-01T06:17:08;95602.31;;;15.36;100.00
70745;BME280;59284;31.390;34.904;2023-01-01T06:19:34;95616.78;;;15.20;100.00
70745;BME280;59284;31.390;34.904;2023-01-01T06:22:01;95597.78;;;15.06;100.00
70745;BME280;59284;31.390;34.904;2023-01-01T06:24:27;95607.78;;;15.26;100.00
70745;BME280;59284;31.390;34.904;2023-01-01T06:26:52;95603.00;;;15.06;100.00
70745;BME280;59284;31.390;34.904;2023-01-01T06:29:18;95605.50;;;15.11;100.00
70745;BME280;59284;31.390;34.904;2023-01-01T06:31:43;95607.00;;;15.25;100.00
70745;BME280;59284;31.390;34.904;2023-01-01T06:34:09;95606.72;;;15.05;100.00
70745;BME280;59284;31.390;34.904;2023-01-01T06:36:35;95611.09;;;15.18;100.00
70745;BME280;59284;31.390;34.904;2023-01-01T06:39:00;95611.81;;;15.10;100.00
70745;BME280;59284;31.390;34.904;2023-01-01T06:41:27;95605.75;;;15.23;100.00
70745;BME280;59284;31.390;34.904;2023-01-01T06:43:55;95614.53;;;15.27;100.00
70745;BME280;59284;31.390;34.904;2023-01-01T06:48:49;95614.50;;;15.18;100.00
70745;BME280;59284;31.390;34.904;2023-01-01T06:51:23;95618.88;;;15.31;100.00
70745;BME280;59284;31.390;34.904;2023-01-01T06:53:49;95613.72;;;15.18;100.00
70745;BME280;59284;31.390;34.904;2023-01-01T06:56:16;95603.38;;;15.13;100.00
70745;BME280;59284;31.390;34.904;2023-01-01T06:58:42;95607.34;;;15.10;100.00
70745;BME280;59284;31.390;34.904;2023-01-01T07:01:13;95618.88;;;15.31;100.00
70745;BME280;59284;31.390;34.904;2023-01-01T07:03:39;95616.94;;;15.37;100.00
70745;BME280;59284;31.390;34.904;2023-01-01T07:06:06;95613.13;;;15.21;100.00
70745;BME280;59284;31.390;34.904;2023-01-01T07:08:32;95615.09;;;15.60;100.00
70745;BME280;59284;31.390;34.904;2023-01-01T07:10:58;95624.44;;;15.52;100.00
70745;BME280;59284;31.390;34.904;2023-01-01T07:13:24;95615.72;;;15.43;100.00
70745;BME280;59284;31.390;34.904;2023-01-01T07:15:52;95624.19;;;15.62;100.00
70745;BME280;59284;31.390;34.904;2023-01-01T07:18:22;95610.94;;;15.89;100.00
70745;BME280;59284;31.390;34.904;2023-01-01T07:20:56;95610.88;;;16.11;100.00
70745;BME280;59284;31.390;34.904;2023-01-01T07:23:23;95632.16;;;15.79;100.00
70745;BME280;59284;31.390;34.904;2023-01-01T07:25:49;95627.00;;;16.05;100.00
70745;BME280;59284;31.390;34.904;2023-01-01T07:28:15;95636.03;;;15.90;100.00
70745;BME280;59284;31.390;34.904;2023-01-01T07:30:41;95629.56;;;15.88;100.00
70745;BME280;59284;31.390;34.904;2023-01-01T07:33:14;95630.53;;;16.00;100.00
70745;BME280;59284;31.390;34.904;2023-01-01T07:35:41;95624.78;;;15.90;100.00
70745;BME280;59284;31.390;34.904;2023-01-01T07:38:07;95634.22;;;15.99;100.00
70745;BME280;59284;31.390;34.904;2023-01-01T07:40:33;95616.03;;;15.64;100.00
70745;BME280;59284;31.390;34.904;2023-01-01T07:42:58;95623.25;;;15.58;100.00
70745;BME280;59284;31.390;34.904;2023-01-01T07:45:24;95631.63;;;15.99;100.00
70745;BME280;59284;31.390;34.904;2023-01-01T07:47:53;95611.31;;;16.05;100.00
70745;BME280;59284;31.390;34.904;2023-01-01T07:50:19;95600.78;;;15.88;100.00
70745;BME280;59284;31.390;34.904;2023-01-01T07:52:45;95601.75;;;16.00;100.00
70745;BME280;59284;31.390;34.904;2023-01-01T07:55:12;95610.34;;;15.92;100.00
70745;BME280;59284;31.390;34.904;2023-01-01T07:57:41;95597.84;;;15.89;100.00
70745;BME280;59284;31.390;34.904;2023-01-01T08:00:08;95604.75;;;16.16;100.00
70745;BME280;59284;31.390;34.904;2023-01-01T08:02:34;95614.63;;;15.88;100.00
70745;BME280;59284;31.390;34.904;2023-01-01T08:05:00;95612.63;;;15.85;100.00
70745;BME280;59284;31.390;34.904;2023-01-01T08:07:26;95594.56;;;16.14;100.00
70745;BME280;59284;31.390;34.904;2023-01-01T08:09:52;95604.22;;;16.05;100.00
70745;BME280;59284;31.390;34.904;2023-01-01T08:12:17;95617.63;;;15.73;100.00
70745;BME280;59284;31.390;34.904;2023-01-01T08:14:43;95615.78;;;15.74;100.00
70745;BME280;59284;31.390;34.904;2023-01-01T08:17:09;95621.78;;;16.05;100.00
70745;BME280;59284;31.390;34.904;2023-01-01T08:19:34;95614.13;;;15.86;100.00
70745;BME280;59284;31.390;34.904;2023-01-01T08:22:00;95616.81;;;15.64;100.00
70745;BME280;59284;31.390;34.904;2023-01-01T08:24:26;95622.72;;;16.09;100.00
70745;BME280;59284;31.390;34.904;2023-01-01T08:26:51;95617.47;;;15.70;100.00
70745;BME280;59284;31.390;34.904;2023-01-01T08:29:19;95611.94;;;15.71;100.00
70745;BME280;59284;31.390;34.904;2023-01-01T08:31:45;95618.78;;;15.59;100.00
70745;BME280;59284;31.390;34.904;2023-01-01T08:34:11;95610.69;;;15.69;100.00
70745;BME280;59284;31.390;34.904;2023-01-01T08:36:37;95609.47;;;15.44;100.00
70745;BME280;59284;31.390;34.904;2023-01-01T08:39:07;95577.13;;;16.58;100.00
70745;BME280;59284;31.390;34.904;2023-01-01T08:41:33;95607.34;;;16.64;100.00
70745;BME280;59284;31.390;34.904;2023-01-01T08:43:59;95593.06;;;16.31;100.00
70745;BME280;59284;31.390;34.904;2023-01-01T08:46:25;95585.19;;;16.22;100.00
70745;BME280;59284;31.390;34.904;2023-01-01T08:48:51;95588.78;;;16.43;100.00
70745;BME280;59284;31.390;34.904;2023-01-01T08:51:16;95595.88;;;16.43;100.00
70745;BME280;59284;31.390;34.904;2023-01-01T08:53:42;95584.25;;;17.17;100.00
70745;BME280;59284;31.390;34.904;2023-01-01T08:56:10;95588.84;;;17.29;100.00
70745;BME280;59284;31.390;34.904;2023-01-01T08:58:38;95599.56;;;16.42;100.00
70745;BME280;59284;31.390;34.904;2023-01-01T09:01:08;95606.91;;;17.13;100.00
70745;BME280;59284;31.390;34.904;2023-01-01T09:03:35;95602.69;;;16.52;100.00
70745;BME280;59284;31.390;34.904;2023-01-01T09:06:06;95591.34;;;17.08;100.00
70745;BME280;59284;31.390;34.904;2023-01-01T09:08:32;95597.59;;;15.99;100.00
70745;BME280;59284;31.390;34.904;2023-01-01T09:11:02;95589.63;;;16.13;100.00
70745;BME280;59284;31.390;34.904;2023-01-01T09:13:28;95595.19;;;16.20;100.00
70745;BME280;59284;31.390;34.904;2023-01-01T09:15:55;95573.25;;;15.60;100.00
70745;BME280;59284;31.390;34.904;2023-01-01T09:18:21;95585.94;;;16.96;100.00
70745;BME280;59284;31.390;34.904;2023-01-01T09:20:47;95587.66;;;15.79;100.00
70745;BME280;59284;31.390;34.904;2023-01-01T09:23:13;95577.44;;;15.69;100.00
70745;BME280;59284;31.390;34.904;2023-01-01T09:25:39;95565.72;;;15.97;100.00
70745;BME280;59284;31.390;34.904;2023-01-01T09:28:07;95560.53;;;16.23;100.00
70745;BME280;59284;31.390;34.904;2023-01-01T09:30:34;95542.50;;;16.04;100.00
70745;BME280;59284;31.390;34.904;2023-01-01T09:33:00;95537.88;;;16.01;100.00
70745;BME280;59284;31.390;34.904;2023-01-01T09:35:26;95546.06;;;16.17;100.00
70745;BME280;59284;31.390;34.904;2023-01-01T09:37:51;95533.31;;;16.33;100.00
70745;BME280;59284;31.390;34.904;2023-01-01T09:40:29;95528.13;;;16.84;100.00
70745;BME280;59284;31.390;34.904;2023-01-01T09:43:53;95538.81;;;16.14;100.00
70745;BME280;59284;31.390;34.904;2023-01-01T09:45:59;95523.28;;;16.35;100.00
70745;BME280;59284;31.390;34.904;2023-01-01T09:48:28;95506.81;;;16.26;100.00
70745;BME280;59284;31.390;34.904;2023-01-01T09:50:55;95521.84;;;15.94;100.00
70745;BME280;59284;31.390;34.904;2023-01-01T09:54:04;95522.84;;;17.18;100.00
70745;BME280;59284;31.390;34.904;2023-01-01T09:56:32;95509.28;;;16.99;100.00
70745;BME280;59284;31.390;34.904;2023-01-01T09:58:59;95494.06;;;16.67;100.00
70745;BME280;59284;31.390;34.904;2023-01-01T10:06:50;95507.72;;;18.08;100.00
70745;BME280;59284;31.390;34.904;2023-01-01T10:14:29;95504.25;;;16.68;100.00
70745;BME280;59284;31.390;34.904;2023-01-01T10:16:59;95485.75;;;16.82;100.00
70745;BME280;59284;31.390;34.904;2023-01-01T10:19:31;95504.19;;;17.11;100.00
70745;BME280;59284;31.390;34.904;2023-01-01T10:22:02;95500.34;;;17.72;100.00
70745;BME280;59284;31.390;34.904;2023-01-01T10:24:33;95500.78;;;17.19;100.00
70745;BME280;59284;31.390;34.904;2023-01-01T10:27:03;95492.25;;;17.39;100.00
70745;BME280;59284;31.390;34.904;2023-01-01T10:29:49;95489.34;;;17.32;100.00
70745;BME280;59284;31.390;34.904;2023-01-01T10:32:30;95492.38;;;16.71;100.00
70745;BME280;59284;31.390;34.904;2023-01-01T10:34:57;95484.66;;;16.83;100.00
70745;BME280;59284;31.390;34.904;2023-01-01T10:37:29;95480.81;;;16.72;100.00
70745;BME280;59284;31.390;34.904;2023-01-01T10:39:56;95485.41;;;17.01;100.00
70745;BME280;59284;31.390;34.904;2023-01-01T10:42:21;95472.34;;;16.92;100.00
70745;BME280;59284;31.390;34.904;2023-01-01T10:44:50;95466.16;;;17.51;100.00
70745;BME280;59284;31.390;34.904;2023-01-01T10:47:24;95476.66;;;17.51;100.00
70745;BME280;59284;31.390;34.904;2023-01-01T10:52:29;95450.84;;;18.33;100.00
70745;BME280;59284;31.390;34.904;2023-01-01T10:54:56;95457.66;;;18.54;100.00
70745;BME280;59284;31.390;34.904;2023-01-01T10:59:52;95468.06;;;18.42;100.00
70745;BME280;59284;31.390;34.904;2023-01-01T11:02:21;95454.88;;;19.49;100.00
70745;BME280;59284;31.390;34.904;2023-01-01T11:04:48;95451.31;;;18.88;100.00
70745;BME280;59284;31.390;34.904;2023-01-01T11:07:27;95455.09;;;18.66;100.00
70745;BME280;59284;31.390;34.904;2023-01-01T11:09:59;95454.50;;;17.70;100.00
70745;BME280;59284;31.390;34.904;2023-01-01T11:12:30;95445.06;;;18.80;100.00
70745;BME280;59284;31.390;34.904;2023-01-01T11:14:58;95431.06;;;17.65;100.00
70745;BME280;59284;31.390;34.904;2023-01-01T11:17:30;95435.81;;;17.71;100.00
70745;BME280;59284;31.390;34.904;2023-01-01T11:19:58;95443.88;;;17.95;100.00
70745;BME280;59284;31.390;34.904;2023-01-01T11:22:46;95426.56;;;18.36;100.00
70745;BME280;59284;31.390;34.904;2023-01-01T11:25:18;95432.78;;;18.10;100.00
70745;BME280;59284;31.390;34.904;2023-01-01T11:27:44;95421.31;;;17.27;100.00
70745;BME280;59284;31.390;34.904;2023-01-01T11:30:26;95423.06;;;18.32;100.00
70745;BME280;59284;31.390;34.904;2023-01-01T11:32:56;95434.50;;;17.86;100.00
70745;BME280;59284;31.390;34.904;2023-01-01T11:35:26;95425.34;;;17.92;100.00
70745;BME280;59284;31.390;34.904;2023-01-01T11:37:53;95418.66;;;17.74;100.00
70745;BME280;59284;31.390;34.904;2023-01-01T11:40:43;95411.22;;;19.60;100.00
70745;BME280;59284;31.390;34.904;2023-01-01T11:43:20;95412.22;;;19.68;100.00
70745;BME280;59284;31.390;34.904;2023-01-01T11:45:47;95416.41;;;18.87;100.00
70745;BME280;59284;31.390;34.904;2023-01-01T11:48:16;95403.28;;;19.96;100.00
70745;BME280;59284;31.390;34.904;2023-01-01T11:51:03;95408.03;;;19.91;100.00
70745;BME280;59284;31.390;34.904;2023-01-01T11:53:33;95396.53;;;20.63;100.00
70745;BME280;59284;31.390;34.904;2023-01-01T11:56:11;95415.50;;;22.09;100.00
70745;BME280;59284;31.390;34.904;2023-01-01T12:01:21;95421.66;;;21.31;100.00
70745;BME280;59284;31.390;34.904;2023-01-01T12:06:48;95410.09;;;20.92;100.00
70745;BME280;59284;31.390;34.904;2023-01-01T12:11:58;95436.56;;;18.01;100.00
70745;BME280;59284;31.390;34.904;2023-01-01T12:14:46;95426.72;;;17.98;100.00
70745;BME280;59284;31.390;34.904;2023-01-01T12:20:11;95440.97;;;17.04;100.00
70745;BME280;59284;31.390;34.904;2023-01-01T12:22:41;95437.31;;;16.88;100.00
70745;BME280;59284;31.390;34.904;2023-01-01T12:25:15;95426.06;;;17.42;100.00
70745;BME280;59284;31.390;34.904;2023-01-01T12:30:40;95433.44;;;17.03;100.00
70745;BME280;59284;31.390;34.904;2023-01-01T12:36:00;95442.59;;;16.71;100.00
70745;BME280;59284;31.390;34.904;2023-01-01T12:38:37;95436.88;;;16.77;100.00
70745;BME280;59284;31.390;34.904;2023-01-01T12:41:39;95442.91;;;16.78;100.00
70745;BME280;59284;31.390;34.904;2023-01-01T12:50:44;95445.66;;;16.47;100.00
70745;BME280;59284;31.390;34.904;2023-01-01T13:01:05;95439.50;;;16.35;100.00
70745;BME280;59284;31.390;34.904;2023-01-01T13:03:36;95423.19;;;16.38;100.00
70745;BME280;59284;31.390;34.904;2023-01-01T13:06:10;95414.09;;;16.09;100.00
70745;BME280;59284;31.390;34.904;2023-01-01T13:08:40;95429.63;;;16.49;100.00
70745;BME280;59284;31.390;34.904;2023-01-01T13:11:07;95425.94;;;16.07;100.00
70745;BME280;59284;31.390;34.904;2023-01-01T13:13:34;95439.22;;;16.28;100.00
70745;BME280;59284;31.390;34.904;2023-01-01T13:16:00;95423.50;;;16.02;100.00
70745;BME280;59284;31.390;34.904;2023-01-01T13:18:33;95413.66;;;16.59;100.00
70745;BME280;59284;31.390;34.904;2023-01-01T13:21:21;95427.19;;;16.09;100.00
70745;BME280;59284;31.390;34.904;2023-01-01T13:23:48;95412.41;;;15.88;100.00
70745;BME280;59284;31.390;34.904;2023-01-01T13:32:00;95428.72;;;16.79;100.00
70745;BME280;59284;31.390;34.904;2023-01-01T13:39:58;95415.97;;;16.17;100.00
70745;BME280;59284;31.390;34.904;2023-01-01T13:45:34;95408.84;;;15.92;100.00
70745;BME280;59284;31.390;34.904;2023-01-01T13:51:10;95424.25;;;16.20;100.00
70745;BME280;59284;31.390;34.904;2023-01-01T13:56:34;95427.66;;;16.11;100.00
70745;BME280;59284;31.390;34.904;2023-01-01T14:01:50;95424.25;;;16.02;100.00
70745;BME280;59284;31.390;34.904;2023-01-01T14:04:41;95419.34;;;16.27;100.00
70745;BME280;59284;31.390;34.904;2023-01-01T14:12:43;95407.38;;;15.52;100.00
70745;BME280;59284;31.390;34.904;2023-01-01T14:15:23;95404.22;;;15.72;100.00
70745;BME280;59284;31.390;34.904;2023-01-01T14:17:50;95416.00;;;15.44;100.00
70745;BME280;59284;31.390;34.904;2023-01-01T14:20:18;95417.44;;;15.67;100.00
70745;BME280;59284;31.390;34.904;2023-01-01T14:22:46;95415.28;;;15.61;100.00
70745;BME280;59284;31.390;34.904;2023-01-01T14:25:19;95418.97;;;15.68;100.00
70745;BME280;59284;31.390;34.904;2023-01-01T14:27:47;95405.31;;;15.32;100.00
70745;BME280;59284;31.390;34.904;2023-01-01T14:30:16;95410.72;;;15.35;100.00
70745;BME280;59284;31.390;34.904;2023-01-01T14:32:43;95434.38;;;15.39;100.00
70745;BME280;59284;31.390;34.904;2023-01-01T14:35:15;95396.88;;;15.35;100.00
70745;BME280;59284;31.390;34.904;2023-01-01T14:37:41;95420.94;;;15.15;100.00